Time;durP1;ratioP1;P1;durP2;ratioP2;P2;SDS_P1;SDS_P2;PMS_P1;PMS_P2;Temp;Humidity;BMP_temperature;BMP_pressure;BME280_temperature;BME280_humidity;BME280_pressure;Samples;Min_cycle;Max_cycle;Signal;HPM_P1;HPM_P2
2023/12/03 00:00:42;;;;;;;3.03;2.75;;;;;;;;;;5097541;28;20019;-86
2023/12/03 00:03:08;;;;;;;2.65;1.85;;;;;;;;;;5114054;28;20024;-85
2023/12/03 00:05:35;;;;;;;2.10;2.00;;;;;;;;;;5116422;28;20028;-85
2023/12/03 00:08:01;;;;;;;3.05;2.63;;;;;;;;;;5108679;28;20023;-86
2023/12/03 00:10:27;;;;;;;4.63;2.90;;;;;;;;;;5099421;28;20039;-84
2023/12/03 00:12:52;;;;;;;4.88;2.60;;;;;;;;;;5109472;28;20073;-85
2023/12/03 00:15:18;;;;;;;3.13;2.03;;;;;;;;;;5098336;28;20046;-86
2023/12/03 00:17:43;;;;;;;2.40;1.63;;;;;;;;;;5126122;27;20042;-83
2023/12/03 00:20:09;;;;;;;5.05;2.25;;;;;;;;;;5115216;28;20061;-84
2023/12/03 00:22:34;;;;;;;4.50;2.17;;;;;;;;;;5115315;28;20106;-84
2023/12/03 00:24:59;;;;;;;6.20;2.63;;;;;;;;;;5096485;28;20023;-86
2023/12/03 00:27:25;;;;;;;2.08;1.65;;;;;;;;;;5115517;28;20035;-88
2023/12/03 00:29:50;;;;;;;3.25;2.15;;;;;;;;;;5101784;28;20076;-85
2023/12/03 00:32:15;;;;;;;4.38;3.17;;;;;;;;;;5115110;28;20030;-85
2023/12/03 00:34:41;;;;;;;3.80;3.03;;;;;;;;;;5115503;28;20031;-86
2023/12/03 00:37:06;;;;;;;1.85;1.75;;;;;;;;;;5096115;28;20039;-85
2023/12/03 00:39:31;;;;;;;4.35;2.42;;;;;;;;;;5123278;27;20027;-85
2023/12/03 00:41:57;;;;;;;2.78;2.20;;;;;;;;;;5116487;28;20496;-86
2023/12/03 00:44:23;;;;;;;3.95;2.97;;;;;;;;;;5116221;28;20024;-85
2023/12/03 00:46:48;;;;;;;3.65;2.72;;;;;;;;;;5122524;27;20062;-87
2023/12/03 00:49:13;;;;;;;3.60;2.60;;;;;;;;;;5118125;28;20032;-86
2023/12/03 00:51:39;;;;;;;0.63;0.63;;;;;;;;;;5126908;27;20034;-85
2023/12/03 00:54:04;;;;;;;3.55;2.38;;;;;;;;;;5126263;27;20033;-85
2023/12/03 00:56:29;;;;;;;2.17;1.98;;;;;;;;;;5111414;28;20506;-87
2023/12/03 00:58:55;;;;;;;1.23;1.20;;;;;;;;;;5100693;28;20023;-84
2023/12/03 01:01:20;;;;;;;3.67;2.83;;;;;;;;;;5115859;28;20038;-84
2023/12/03 01:03:45;;;;;;;2.58;2.15;;;;;;;;;;5106633;28;20019;-85
2023/12/03 01:06:11;;;;;;;1.33;1.33;;;;;;;;;;5104236;28;20027;-84
2023/12/03 01:08:36;;;;;;;3.38;2.53;;;;;;;;;;5108468;28;20443;-84
2023/12/03 01:11:05;;;;;;;6.47;2.45;;;;;;;;;;5099421;28;20081;-82
2023/12/03 01:13:30;;;;;;;1.63;1.52;;;;;;;;;;5114209;28;20484;-83
2023/12/03 01:15:56;;;;;;;3.78;2.03;;;;;;;;;;5099449;28;20026;-87
2023/12/03 01:18:21;;;;;;;1.75;1.65;;;;;;;;;;5101087;28;20034;-86
2023/12/03 01:20:46;;;;;;;7.97;2.53;;;;;;;;;;5130035;28;20012;-85
2023/12/03 01:23:12;;;;;;;1.50;1.42;;;;;;;;;;5100669;28;20023;-86
2023/12/03 01:25:37;;;;;;;2.33;2.13;;;;;;;;;;5098280;28;20392;-86
2023/12/03 01:28:02;;;;;;;1.75;1.65;;;;;;;;;;5099403;28;20024;-87
2023/12/03 01:30:28;;;;;;;2.22;1.60;;;;;;;;;;5097746;28;20020;-86
2023/12/03 01:32:53;;;;;;;3.13;2.83;;;;;;;;;;5116978;28;20140;-85
2023/12/03 01:35:18;;;;;;;2.80;2.60;;;;;;;;;;5110574;28;20106;-86
2023/12/03 01:37:44;;;;;;;3.20;1.77;;;;;;;;;;5109972;28;20066;-83
2023/12/03 01:40:09;;;;;;;2.55;1.95;;;;;;;;;;5118531;28;20042;-85
2023/12/03 01:42:35;;;;;;;2.85;2.63;;;;;;;;;;5100463;28;20043;-84
2023/12/03 01:45:01;;;;;;;4.07;2.33;;;;;;;;;;5116182;28;20537;-84
2023/12/03 01:47:27;;;;;;;2.53;2.20;;;;;;;;;;5119476;28;20027;-86
2023/12/03 01:49:52;;;;;;;1.90;1.77;;;;;;;;;;5119164;28;20028;-86
2023/12/03 01:52:18;;;;;;;2.28;2.03;;;;;;;;;;5117963;28;20052;-85
2023/12/03 01:54:44;;;;;;;3.38;2.50;;;;;;;;;;5108516;28;20031;-85
2023/12/03 01:57:11;;;;;;;5.47;2.63;;;;;;;;;;5102614;27;20032;-85
2023/12/03 01:59:36;;;;;;;3.00;1.98;;;;;;;;;;5114320;28;20024;-85
2023/12/03 02:02:04;;;;;;;3.13;2.42;;;;;;;;;;5097270;28;20036;-84
2023/12/03 02:04:30;;;;;;;0.98;0.98;;;;;;;;;;5118167;28;20023;-85
2023/12/03 02:06:55;;;;;;;2.38;1.95;;;;;;;;;;5115806;28;20031;-85
2023/12/03 02:09:21;;;;;;;4.60;2.33;;;;;;;;;;5120461;27;20028;-85
2023/12/03 02:11:47;;;;;;;2.00;1.90;;;;;;;;;;5120031;27;20199;-84
2023/12/03 02:14:13;;;;;;;3.35;2.90;;;;;;;;;;5098261;28;20027;-84
2023/12/03 02:16:44;;;;;;;8.20;2.90;;;;;;;;;;5116370;27;20477;-86
2023/12/03 02:19:09;;;;;;;4.65;3.20;;;;;;;;;;5095110;28;20040;-84
2023/12/03 02:21:35;;;;;;;3.70;2.63;;;;;;;;;;5091414;28;20024;-83
2023/12/03 02:24:00;;;;;;;5.93;2.50;;;;;;;;;;5099020;28;20058;-84
2023/12/03 02:26:55;;;;;;;4.78;3.13;;;;;;;;;;5117397;28;20059;-84
2023/12/03 02:29:45;;;;;;;2.03;1.92;;;;;;;;;;5106956;28;20035;-84
2023/12/03 02:32:11;;;;;;;2.85;2.47;;;;;;;;;;5117919;28;20110;-85
2023/12/03 02:34:36;;;;;;;3.15;1.92;;;;;;;;;;5118584;28;20028;-85
2023/12/03 02:37:01;;;;;;;2.47;1.83;;;;;;;;;;5100252;28;20031;-84
2023/12/03 02:39:27;;;;;;;4.85;2.83;;;;;;;;;;5125920;27;20031;-86
2023/12/03 02:41:52;;;;;;;2.38;1.67;;;;;;;;;;5121838;27;20023;-86
2023/12/03 02:44:17;;;;;;;2.33;2.13;;;;;;;;;;5098558;28;20027;-86
2023/12/03 02:46:43;;;;;;;2.72;2.20;;;;;;;;;;5116428;28;20016;-85
2023/12/03 02:49:08;;;;;;;2.35;2.05;;;;;;;;;;5096659;28;20077;-85
2023/12/03 02:51:34;;;;;;;3.78;3.08;;;;;;;;;;5115105;28;20027;-84
2023/12/03 02:53:59;;;;;;;3.35;3.05;;;;;;;;;;5110658;28;20062;-85
2023/12/03 02:56:24;;;;;;;3.25;1.65;;;;;;;;;;5076720;28;20363;-85
2023/12/03 02:58:50;;;;;;;3.53;1.60;;;;;;;;;;5096146;28;20058;-86
2023/12/03 03:01:15;;;;;;;2.58;2.38;;;;;;;;;;5111808;28;20100;-85
2023/12/03 03:03:40;;;;;;;4.28;2.42;;;;;;;;;;5095452;28;20477;-84
2023/12/03 03:06:06;;;;;;;5.75;2.60;;;;;;;;;;5116199;28;20412;-81
2023/12/03 03:08:31;;;;;;;3.38;2.05;;;;;;;;;;5121266;28;20042;-86
2023/12/03 03:10:57;;;;;;;4.53;1.92;;;;;;;;;;5113574;28;20040;-86
2023/12/03 03:13:22;;;;;;;2.35;2.10;;;;;;;;;;5120091;27;20046;-84
2023/12/03 03:15:47;;;;;;;4.40;2.95;;;;;;;;;;5101530;28;20027;-86
2023/12/03 03:18:12;;;;;;;2.28;1.98;;;;;;;;;;5108711;28;20370;-84
2023/12/03 03:20:38;;;;;;;2.47;2.28;;;;;;;;;;5113493;27;20512;-84
2023/12/03 03:23:03;;;;;;;2.63;1.70;;;;;;;;;;5117511;27;20057;-84
2023/12/03 03:25:29;;;;;;;3.05;2.38;;;;;;;;;;5115419;28;20036;-85
2023/12/03 03:27:54;;;;;;;5.78;2.90;;;;;;;;;;5115116;28;20057;-84
2023/12/03 03:30:19;;;;;;;2.10;1.90;;;;;;;;;;5115066;28;20034;-83
2023/12/03 03:32:45;;;;;;;10.13;2.53;;;;;;;;;;5118623;27;20027;-84
2023/12/03 03:35:10;;;;;;;3.33;2.10;;;;;;;;;;5117872;28;20127;-85
2023/12/03 03:37:35;;;;;;;2.38;1.88;;;;;;;;;;5118327;28;20564;-85
2023/12/03 03:40:01;;;;;;;2.40;2.10;;;;;;;;;;5117089;27;20046;-84
2023/12/03 03:42:26;;;;;;;1.98;1.88;;;;;;;;;;5099328;28;20043;-86
2023/12/03 03:44:51;;;;;;;2.53;1.50;;;;;;;;;;5118457;27;20023;-86
2023/12/03 03:47:16;;;;;;;1.98;1.58;;;;;;;;;;5118680;28;20027;-84
2023/12/03 03:49:47;;;;;;;2.58;1.48;;;;;;;;;;5109358;28;20039;-85
2023/12/03 03:52:12;;;;;;;2.00;1.73;;;;;;;;;;5120904;27;20488;-84
2023/12/03 03:54:41;;;;;;;1.75;1.38;;;;;;;;;;5116035;28;20033;-84
2023/12/03 03:57:06;;;;;;;1.65;1.50;;;;;;;;;;5096748;28;20055;-85
2023/12/03 03:59:32;;;;;;;3.25;1.90;;;;;;;;;;5116285;28;20143;-84
2023/12/03 04:01:57;;;;;;;1.73;1.63;;;;;;;;;;5094723;28;20038;-85
2023/12/03 04:04:22;;;;;;;3.28;2.67;;;;;;;;;;5096594;28;20034;-84
2023/12/03 04:06:48;;;;;;;1.67;1.58;;;;;;;;;;5121388;27;20434;-85
2023/12/03 04:09:14;;;;;;;1.83;1.73;;;;;;;;;;5115012;28;20397;-84
2023/12/03 04:11:40;;;;;;;2.70;2.47;;;;;;;;;;5103505;27;20055;-85
2023/12/03 04:14:07;;;;;;;1.25;1.15;;;;;;;;;;5125850;27;20113;-85
2023/12/03 04:16:47;;;;;;;3.40;2.40;;;;;;;;;;5107961;28;20037;-83
2023/12/03 04:19:13;;;;;;;3.30;2.13;;;;;;;;;;5094012;28;20059;-85
2023/12/03 04:21:39;;;;;;;2.17;1.98;;;;;;;;;;5106758;28;20057;-84
2023/12/03 04:24:05;;;;;;;1.10;1.10;;;;;;;;;;5116127;28;20020;-83
2023/12/03 04:26:30;;;;;;;1.90;1.63;;;;;;;;;;5104530;28;20099;-84
2023/12/03 04:28:56;;;;;;;2.58;1.55;;;;;;;;;;5120415;27;20030;-85
2023/12/03 04:31:27;;;;;;;1.90;1.73;;;;;;;;;;5118301;27;20042;-85
2023/12/03 04:33:54;;;;;;;;;;;;;;;;;;5096850;28;20080;-84
2023/12/03 04:36:23;;;;;;;0.73;0.73;;;;;;;;;;5097174;28;19915;-84
2023/12/03 04:38:52;;;;;;;1.40;1.30;;;;;;;;;;5114693;28;20027;-84
2023/12/03 04:41:18;;;;;;;1.10;1.10;;;;;;;;;;5113957;28;20469;-86
2023/12/03 04:43:43;;;;;;;4.22;2.30;;;;;;;;;;5116087;28;20028;-84
2023/12/03 04:46:08;;;;;;;1.60;1.45;;;;;;;;;;5116878;28;20028;-84
2023/12/03 04:48:34;;;;;;;4.45;1.83;;;;;;;;;;5105428;28;20023;-85
2023/12/03 04:51:00;;;;;;;2.95;1.95;;;;;;;;;;5114750;28;20088;-86
2023/12/03 04:53:25;;;;;;;2.83;1.85;;;;;;;;;;5115169;28;20030;-86
2023/12/03 04:55:51;;;;;;;4.03;2.67;;;;;;;;;;5114803;28;20036;-85
2023/12/03 04:58:16;;;;;;;1.83;1.70;;;;;;;;;;5097321;28;20042;-83
2023/12/03 05:00:42;;;;;;;1.70;1.60;;;;;;;;;;5115749;28;20031;-87
2023/12/03 05:03:07;;;;;;;1.50;1.40;;;;;;;;;;5101477;28;20024;-85
2023/12/03 05:05:32;;;;;;;3.35;2.35;;;;;;;;;;5123436;28;20028;-87
2023/12/03 05:07:58;;;;;;;1.73;1.58;;;;;;;;;;5104039;28;20027;-86
2023/12/03 05:10:23;;;;;;;2.35;2.15;;;;;;;;;;5118653;28;20035;-86
2023/12/03 05:12:48;;;;;;;6.95;2.42;;;;;;;;;;5127646;27;20020;-87
2023/12/03 05:15:14;;;;;;;2.97;2.05;;;;;;;;;;5110452;28;20084;-84
2023/12/03 05:17:40;;;;;;;2.80;2.53;;;;;;;;;;5119576;28;20590;-87
2023/12/03 05:20:06;;;;;;;3.03;2.75;;;;;;;;;;5124153;27;20048;-84
2023/12/03 05:22:31;;;;;;;1.02;1.02;;;;;;;;;;5119333;27;20015;-86
2023/12/03 05:24:57;;;;;;;4.05;2.13;;;;;;;;;;5114747;27;20031;-84
2023/12/03 05:27:27;;;;;;;1.80;1.70;;;;;;;;;;5118771;28;20102;-84
2023/12/03 05:29:53;;;;;;;1.00;1.00;;;;;;;;;;5119107;28;20107;-86
2023/12/03 05:32:18;;;;;;;5.10;1.38;;;;;;;;;;5123441;27;20057;-86
2023/12/03 05:34:44;;;;;;;2.40;1.60;;;;;;;;;;5139270;27;20480;-84
2023/12/03 05:37:09;;;;;;;2.63;2.38;;;;;;;;;;5110535;28;20397;-84
2023/12/03 05:39:37;;;;;;;2.45;2.25;;;;;;;;;;5099081;28;20058;-83
2023/12/03 05:42:03;;;;;;;2.83;1.95;;;;;;;;;;5120246;27;20031;-85
2023/12/03 05:45:03;;;;;;;5.50;3.33;;;;;;;;;;5125089;27;20023;-84
2023/12/03 05:47:44;;;;;;;1.98;1.88;;;;;;;;;;5116201;28;20027;-84
2023/12/03 05:50:09;;;;;;;1.50;1.40;;;;;;;;;;5131506;27;20023;-82
2023/12/03 05:52:35;;;;;;;2.30;2.00;;;;;;;;;;5101339;28;20023;-85
2023/12/03 05:55:24;;;;;;;2.03;1.88;;;;;;;;;;5134113;27;20031;-87
2023/12/03 05:57:50;;;;;;;1.45;1.35;;;;;;;;;;5102232;28;20074;-86
2023/12/03 06:00:16;;;;;;;2.20;1.48;;;;;;;;;;5105971;28;20066;-83
2023/12/03 06:02:42;;;;;;;2.72;1.65;;;;;;;;;;5119737;28;20039;-83
2023/12/03 06:05:08;;;;;;;2.58;2.00;;;;;;;;;;5108942;28;20030;-83
2023/12/03 06:07:33;;;;;;;1.75;1.65;;;;;;;;;;5120279;28;20031;-85
2023/12/03 06:10:01;;;;;;;1.23;1.02;;;;;;;;;;5112816;28;20085;-85
2023/12/03 06:12:26;;;;;;;2.30;0.95;;;;;;;;;;5108638;27;20035;-85
2023/12/03 06:14:52;;;;;;;1.00;1.00;;;;;;;;;;5102545;28;20045;-86
2023/12/03 06:17:17;;;;;;;4.13;2.03;;;;;;;;;;5104437;27;20031;-84
2023/12/03 06:19:44;;;;;;;2.20;1.38;;;;;;;;;;5125699;27;20031;-84
2023/12/03 06:22:09;;;;;;;2.30;2.10;;;;;;;;;;5126977;27;20027;-86
2023/12/03 06:24:34;;;;;;;1.50;1.42;;;;;;;;;;5111119;27;20106;-84
2023/12/03 06:27:00;;;;;;;0.70;0.70;;;;;;;;;;5121676;28;20032;-86
2023/12/03 06:29:25;;;;;;;3.30;2.53;;;;;;;;;;5112389;28;20027;-87
2023/12/03 06:31:51;;;;;;;1.23;1.23;;;;;;;;;;5110431;28;20042;-87
2023/12/03 06:34:16;;;;;;;2.80;1.80;;;;;;;;;;5120854;27;20019;-85
2023/12/03 06:36:42;;;;;;;2.90;1.17;;;;;;;;;;5117448;28;20140;-86
2023/12/03 06:39:10;;;;;;;1.65;1.55;;;;;;;;;;5098005;28;20242;-87
2023/12/03 06:41:35;;;;;;;8.07;2.97;;;;;;;;;;5117419;28;20047;-85
2023/12/03 06:44:03;;;;;;;1.42;1.35;;;;;;;;;;5105307;28;20469;-84
2023/12/03 06:46:28;;;;;;;2.10;1.35;;;;;;;;;;5101932;28;20031;-86
2023/12/03 06:48:56;;;;;;;0.90;0.90;;;;;;;;;;5099407;28;20034;-86
2023/12/03 06:51:21;;;;;;;0.73;0.73;;;;;;;;;;5103884;28;20038;-85
2023/12/03 06:53:47;;;;;;;1.13;1.13;;;;;;;;;;5114571;27;20023;-87
2023/12/03 06:56:12;;;;;;;0.98;0.98;;;;;;;;;;5128128;27;20042;-85
2023/12/03 06:58:38;;;;;;;1.17;1.17;;;;;;;;;;5117562;28;20114;-86
2023/12/03 07:01:04;;;;;;;0.73;0.73;;;;;;;;;;5117308;27;20027;-86
2023/12/03 07:03:29;;;;;;;1.17;1.15;;;;;;;;;;5117294;28;20026;-86
2023/12/03 07:05:59;;;;;;;2.25;0.95;;;;;;;;;;5126089;27;20027;-85
2023/12/03 07:08:25;;;;;;;2.75;2.05;;;;;;;;;;5129275;27;20026;-85
2023/12/03 07:10:50;;;;;;;1.45;0.85;;;;;;;;;;5136396;27;20023;-87
2023/12/03 07:13:15;;;;;;;2.28;1.83;;;;;;;;;;5115581;28;20024;-85
2023/12/03 07:15:41;;;;;;;3.47;1.70;;;;;;;;;;5099817;28;20015;-87
2023/12/03 07:18:06;;;;;;;2.72;1.73;;;;;;;;;;5117290;28;20047;-87
2023/12/03 07:20:31;;;;;;;4.22;2.00;;;;;;;;;;5118914;28;20098;-82
2023/12/03 07:22:57;;;;;;;4.88;2.25;;;;;;;;;;5117896;28;20031;-84
2023/12/03 07:25:22;;;;;;;4.13;1.63;;;;;;;;;;5115646;28;20020;-84
2023/12/03 07:27:48;;;;;;;1.90;1.23;;;;;;;;;;5121730;27;20031;-87
2023/12/03 07:30:14;;;;;;;3.00;1.88;;;;;;;;;;5107121;28;20026;-83
2023/12/03 07:32:39;;;;;;;1.33;1.33;;;;;;;;;;5118703;28;20023;-83
2023/12/03 07:35:05;;;;;;;2.78;1.75;;;;;;;;;;5100815;28;20106;-86
2023/12/03 07:37:30;;;;;;;1.95;1.85;;;;;;;;;;5119242;28;20074;-84
2023/12/03 07:39:56;;;;;;;2.25;1.20;;;;;;;;;;5100564;28;20092;-84
2023/12/03 07:42:21;;;;;;;2.78;2.33;;;;;;;;;;5118542;28;20016;-83
2023/12/03 07:44:46;;;;;;;2.95;2.72;;;;;;;;;;5108327;28;20401;-85
2023/12/03 07:47:12;;;;;;;2.85;2.63;;;;;;;;;;5117701;27;20038;-84
2023/12/03 07:49:37;;;;;;;2.25;1.98;;;;;;;;;;5128582;27;20048;-85
2023/12/03 07:52:03;;;;;;;1.30;1.30;;;;;;;;;;5119087;28;20102;-85
2023/12/03 07:54:28;;;;;;;0.95;0.95;;;;;;;;;;5126324;27;20106;-85
2023/12/03 07:56:53;;;;;;;6.22;3.33;;;;;;;;;;5119195;28;20034;-85
2023/12/03 07:59:19;;;;;;;2.75;1.40;;;;;;;;;;5127714;27;20034;-86
2023/12/03 08:01:44;;;;;;;1.58;1.50;;;;;;;;;;5126727;27;20054;-84
2023/12/03 08:04:09;;;;;;;4.22;1.45;;;;;;;;;;5105322;28;20046;-87
2023/12/03 08:06:35;;;;;;;1.08;1.08;;;;;;;;;;5117896;28;20058;-84
2023/12/03 08:09:00;;;;;;;2.45;2.25;;;;;;;;;;5118109;28;20128;-85
2023/12/03 08:11:26;;;;;;;2.90;2.22;;;;;;;;;;5118442;28;20058;-84
2023/12/03 08:13:54;;;;;;;2.58;1.52;;;;;;;;;;5117383;28;20048;-87
2023/12/03 08:16:19;;;;;;;6.05;2.05;;;;;;;;;;5118390;28;20022;-86
2023/12/03 08:18:44;;;;;;;1.88;1.55;;;;;;;;;;5119042;28;20094;-85
2023/12/03 08:21:10;;;;;;;2.92;2.15;;;;;;;;;;5112339;28;20240;-86
2023/12/03 08:23:35;;;;;;;1.35;1.30;;;;;;;;;;5100042;28;20452;-86
2023/12/03 08:26:03;;;;;;;3.38;1.25;;;;;;;;;;5121984;27;20031;-86
2023/12/03 08:28:28;;;;;;;2.97;2.78;;;;;;;;;;5098775;28;20031;-85
2023/12/03 08:30:53;;;;;;;4.28;2.17;;;;;;;;;;5118335;28;20027;-86
2023/12/03 08:33:19;;;;;;;4.65;2.35;;;;;;;;;;5102048;28;20043;-87
2023/12/03 08:35:45;;;;;;;3.50;1.92;;;;;;;;;;5118651;28;20027;-85
2023/12/03 08:38:10;;;;;;;3.78;2.78;;;;;;;;;;5118593;28;20023;-86
2023/12/03 08:40:35;;;;;;;5.38;4.03;;;;;;;;;;5119813;27;20024;-87
2023/12/03 08:43:01;;;;;;;2.65;1.88;;;;;;;;;;5107046;28;20050;-86
2023/12/03 08:45:26;;;;;;;5.55;1.95;;;;;;;;;;5123398;27;20047;-86
2023/12/03 08:47:51;;;;;;;3.00;2.55;;;;;;;;;;5101550;28;20067;-85
2023/12/03 08:50:17;;;;;;;4.07;2.55;;;;;;;;;;5122454;27;20020;-85
2023/12/03 08:52:43;;;;;;;5.38;3.70;;;;;;;;;;5118697;27;20055;-87
2023/12/03 08:55:08;;;;;;;2.45;2.25;;;;;;;;;;5119290;28;20023;-85
2023/12/03 08:57:34;;;;;;;2.92;2.67;;;;;;;;;;5116532;28;20027;-85
2023/12/03 09:00:00;;;;;;;7.18;3.78;;;;;;;;;;5119043;28;20026;-86
2023/12/03 09:02:25;;;;;;;3.50;2.38;;;;;;;;;;5117575;28;20015;-87
2023/12/03 09:04:51;;;;;;;5.47;3.38;;;;;;;;;;5117028;28;20583;-86
2023/12/03 09:07:19;;;;;;;4.00;3.33;;;;;;;;;;5117707;28;20027;-83
2023/12/03 09:09:44;;;;;;;2.67;2.47;;;;;;;;;;5111467;28;20426;-85
2023/12/03 09:12:10;;;;;;;3.63;2.85;;;;;;;;;;5099870;28;20102;-85
2023/12/03 09:14:35;;;;;;;3.42;2.75;;;;;;;;;;5113286;28;20027;-84
2023/12/03 09:17:01;;;;;;;4.55;3.40;;;;;;;;;;5110396;28;20028;-85
2023/12/03 09:19:26;;;;;;;7.22;3.38;;;;;;;;;;5116821;28;20148;-86
2023/12/03 09:21:51;;;;;;;4.50;3.47;;;;;;;;;;5125725;28;20099;-84
2023/12/03 09:24:17;;;;;;;5.35;2.42;;;;;;;;;;5116837;28;20012;-85
2023/12/03 09:26:44;;;;;;;2.40;2.20;;;;;;;;;;5125363;28;20524;-86
2023/12/03 09:29:11;;;;;;;2.83;1.95;;;;;;;;;;5094727;28;20382;-84
2023/12/03 09:31:39;;;;;;;1.98;1.80;;;;;;;;;;5118041;28;20027;-84
2023/12/03 09:34:05;;;;;;;5.78;3.08;;;;;;;;;;5124466;28;20019;-86
2023/12/03 09:36:30;;;;;;;5.28;2.97;;;;;;;;;;5119729;28;20035;-86
2023/12/03 09:38:55;;;;;;;3.50;2.60;;;;;;;;;;5117893;28;20024;-86
2023/12/03 09:41:23;;;;;;;2.55;2.35;;;;;;;;;;5117348;28;20102;-83
2023/12/03 09:43:53;;;;;;;3.50;2.08;;;;;;;;;;5115349;28;20012;-85
2023/12/03 09:46:22;;;;;;;1.83;1.67;;;;;;;;;;5124889;28;20031;-84
2023/12/03 09:48:50;;;;;;;2.75;2.55;;;;;;;;;;5108245;28;20015;-84
2023/12/03 09:51:18;;;;;;;3.03;2.72;;;;;;;;;;5103294;28;20055;-85
2023/12/03 09:53:47;;;;;;;3.60;2.15;;;;;;;;;;5115690;28;21804;-86
2023/12/03 09:56:13;;;;;;;5.25;3.50;;;;;;;;;;5125581;27;20026;-86
2023/12/03 09:58:39;;;;;;;3.75;3.35;;;;;;;;;;5102541;28;20023;-84
2023/12/03 10:01:04;;;;;;;4.70;3.08;;;;;;;;;;5103244;28;20019;-83
2023/12/03 10:03:30;;;;;;;4.97;3.30;;;;;;;;;;5119124;27;20422;-86
2023/12/03 10:05:56;;;;;;;9.85;3.45;;;;;;;;;;5103762;28;20053;-85
2023/12/03 10:08:22;;;;;;;5.05;3.50;;;;;;;;;;5102921;28;20496;-84
2023/12/03 10:10:59;;;;;;;5.88;3.95;;;;;;;;;;5124643;27;20027;-84
2023/12/03 10:13:26;;;;;;;5.47;3.25;;;;;;;;;;5123137;27;20021;-85
2023/12/03 10:15:51;;;;;;;4.68;3.40;;;;;;;;;;5126027;27;20066;-86
2023/12/03 10:18:18;;;;;;;4.55;3.03;;;;;;;;;;5107818;28;20019;-83
2023/12/03 10:20:44;;;;;;;4.50;3.22;;;;;;;;;;5121376;28;20040;-85
2023/12/03 10:23:16;;;;;;;6.38;3.63;;;;;;;;;;5123083;27;20075;-85
2023/12/03 10:25:41;;;;;;;8.70;2.75;;;;;;;;;;5125361;27;20028;-84
2023/12/03 10:28:08;;;;;;;4.45;2.90;;;;;;;;;;5117267;27;20038;-83
2023/12/03 10:30:35;;;;;;;4.97;3.08;;;;;;;;;;5124599;27;20043;-85
2023/12/03 10:33:01;;;;;;;4.07;2.75;;;;;;;;;;5130851;27;20024;-84
2023/12/03 10:35:32;;;;;;;5.60;3.75;;;;;;;;;;5122444;28;20116;-84
2023/12/03 10:37:57;;;;;;;5.03;4.00;;;;;;;;;;5127857;28;20035;-84
2023/12/03 10:40:23;;;;;;;4.70;3.13;;;;;;;;;;5122826;28;20270;-83
2023/12/03 10:42:48;;;;;;;7.38;5.15;;;;;;;;;;5125414;28;20020;-85
2023/12/03 10:45:15;;;;;;;6.40;3.88;;;;;;;;;;5120317;28;20095;-86
2023/12/03 10:47:42;;;;;;;4.68;3.30;;;;;;;;;;5128355;28;20038;-85
2023/12/03 10:50:09;;;;;;;5.65;4.07;;;;;;;;;;5118110;28;20062;-84
2023/12/03 10:52:36;;;;;;;6.03;3.90;;;;;;;;;;5099331;28;20053;-85
2023/12/03 10:55:06;;;;;;;8.95;4.25;;;;;;;;;;5126313;28;20106;-84
2023/12/03 10:57:34;;;;;;;3.22;2.95;;;;;;;;;;5117886;28;20047;-85
2023/12/03 11:00:05;;;;;;;7.28;3.60;;;;;;;;;;5100225;28;20058;-85
2023/12/03 11:02:45;;;;;;;7.85;3.97;;;;;;;;;;5114914;28;20174;-84
2023/12/03 11:05:20;;;;;;;3.50;3.20;;;;;;;;;;5101138;28;20032;-84
2023/12/03 11:07:46;;;;;;;4.90;2.80;;;;;;;;;;5123898;28;20035;-84
2023/12/03 11:10:12;;;;;;;6.40;3.13;;;;;;;;;;5117759;28;20031;-86
2023/12/03 11:12:38;;;;;;;4.75;3.50;;;;;;;;;;5111757;28;20036;-85
2023/12/03 11:15:04;;;;;;;7.28;2.97;;;;;;;;;;5118255;28;20022;-86
2023/12/03 11:17:41;;;;;;;6.85;3.20;;;;;;;;;;5132107;27;20080;-84
2023/12/03 11:20:14;;;;;;;3.90;2.60;;;;;;;;;;5116729;28;20483;-86
2023/12/03 11:23:08;;;;;;;2.95;2.58;;;;;;;;;;5119240;28;20016;-83
2023/12/03 11:25:35;;;;;;;6.20;2.92;;;;;;;;;;5119268;28;20031;-84
2023/12/03 11:28:01;;;;;;;3.72;2.63;;;;;;;;;;5129136;28;20035;-84
2023/12/03 11:30:40;;;;;;;6.45;3.58;;;;;;;;;;5119562;28;20015;-84
2023/12/03 11:33:19;;;;;;;3.58;2.50;;;;;;;;;;5120379;28;20032;-85
2023/12/03 11:35:46;;;;;;;4.67;3.10;;;;;;;;;;5083267;28;1065944;-83
2023/12/03 11:38:21;;;;;;;5.03;3.83;;;;;;;;;;5122017;28;20023;-85
2023/12/03 11:40:46;;;;;;;6.82;3.88;;;;;;;;;;5130065;27;20032;-84
2023/12/03 11:43:23;;;;;;;3.88;2.92;;;;;;;;;;5123547;27;20035;-83
2023/12/03 11:45:50;;;;;;;4.50;2.60;;;;;;;;;;5106773;27;20015;-84
2023/12/03 11:48:16;;;;;;;4.35;3.92;;;;;;;;;;5134033;27;20031;-85
2023/12/03 11:50:43;;;;;;;3.13;2.85;;;;;;;;;;5131880;27;20031;-85
2023/12/03 11:53:12;;;;;;;6.47;3.25;;;;;;;;;;5102517;28;20102;-84
2023/12/03 11:55:41;;;;;;;4.40;2.97;;;;;;;;;;5110932;27;20039;-86
2023/12/03 11:58:08;;;;;;;7.50;4.30;;;;;;;;;;5128901;27;20079;-85
2023/12/03 12:00:34;;;;;;;4.28;3.58;;;;;;;;;;5131895;27;20045;-86
2023/12/03 12:03:00;;;;;;;9.23;4.07;;;;;;;;;;5127390;28;20011;-81
2023/12/03 12:05:26;;;;;;;6.72;3.83;;;;;;;;;;5132899;28;20489;-86
2023/12/03 12:08:04;;;;;;;3.10;2.85;;;;;;;;;;5119636;28;20027;-85
2023/12/03 12:10:31;;;;;;;4.97;3.97;;;;;;;;;;5136432;27;20031;-84
2023/12/03 12:12:58;;;;;;;3.00;2.63;;;;;;;;;;5110561;27;20019;-82
2023/12/03 12:15:24;;;;;;;3.90;3.50;;;;;;;;;;5132679;27;20737;-85
2023/12/03 12:17:49;;;;;;;5.40;3.70;;;;;;;;;;5121478;28;20049;-85
2023/12/03 12:20:25;;;;;;;5.93;3.97;;;;;;;;;;5132485;27;20031;-83
2023/12/03 12:22:51;;;;;;;4.93;3.22;;;;;;;;;;5143109;27;20020;-83
2023/12/03 12:25:17;;;;;;;7.40;2.95;;;;;;;;;;5139723;27;20023;-83
2023/12/03 12:27:44;;;;;;;3.22;2.58;;;;;;;;;;5128345;27;20069;-82
2023/12/03 12:30:12;;;;;;;4.68;3.03;;;;;;;;;;5122213;27;20027;-84
2023/12/03 12:32:38;;;;;;;7.15;3.65;;;;;;;;;;5117658;27;20039;-82
2023/12/03 12:35:04;;;;;;;6.82;3.22;;;;;;;;;;5129877;27;20024;-83
2023/12/03 12:37:30;;;;;;;12.13;3.55;;;;;;;;;;5119710;28;20091;-84
2023/12/03 12:40:10;;;;;;;10.02;5.47;;;;;;;;;;5128935;27;20047;-84
2023/12/03 12:42:38;;;;;;;3.22;2.53;;;;;;;;;;5125247;27;22431;-84
2023/12/03 12:45:04;;;;;;;5.38;2.90;;;;;;;;;;5104043;28;20035;-84
2023/12/03 12:47:35;;;;;;;4.68;3.35;;;;;;;;;;5115874;28;20027;-84
2023/12/03 12:50:01;;;;;;;3.58;2.88;;;;;;;;;;5118504;27;20039;-85
2023/12/03 12:52:27;;;;;;;5.72;3.05;;;;;;;;;;5124736;27;20046;-84
2023/12/03 12:54:53;;;;;;;4.22;3.10;;;;;;;;;;5119403;27;20461;-86
2023/12/03 12:57:19;;;;;;;4.47;3.63;;;;;;;;;;5117949;28;20024;-86
2023/12/03 12:59:44;;;;;;;5.97;3.00;;;;;;;;;;5109285;28;20089;-86
2023/12/03 13:02:18;;;;;;;4.47;2.95;;;;;;;;;;5119243;28;20023;-86
2023/12/03 13:04:43;;;;;;;3.92;3.13;;;;;;;;;;5099398;28;20118;-85
2023/12/03 13:07:08;;;;;;;3.25;2.95;;;;;;;;;;5102259;28;20051;-86
2023/12/03 13:09:34;;;;;;;3.70;2.85;;;;;;;;;;5114736;28;20403;-85
2023/12/03 13:12:00;;;;;;;8.27;3.80;;;;;;;;;;5102520;28;20028;-86
2023/12/03 13:14:25;;;;;;;7.20;3.67;;;;;;;;;;5118206;28;20529;-85
2023/12/03 13:16:50;;;;;;;6.18;4.03;;;;;;;;;;5117165;28;20039;-86
2023/12/03 13:19:17;;;;;;;4.57;2.38;;;;;;;;;;5095784;28;20122;-85
2023/12/03 13:21:43;;;;;;;5.32;3.42;;;;;;;;;;5116298;28;20031;-86
2023/12/03 13:24:09;;;;;;;2.67;2.03;;;;;;;;;;5123481;28;20076;-87
2023/12/03 13:26:34;;;;;;;5.82;3.05;;;;;;;;;;5098368;28;20552;-85
2023/12/03 13:28:59;;;;;;;6.13;3.22;;;;;;;;;;5123885;28;20034;-86
2023/12/03 13:31:25;;;;;;;7.47;3.10;;;;;;;;;;5112437;28;20027;-85
2023/12/03 13:33:51;;;;;;;4.85;3.75;;;;;;;;;;5121500;27;20039;-87
2023/12/03 13:36:16;;;;;;;5.07;2.95;;;;;;;;;;5120913;28;20067;-85
2023/12/03 13:38:42;;;;;;;3.20;2.90;;;;;;;;;;5133308;27;20065;-85
2023/12/03 13:41:07;;;;;;;3.42;3.10;;;;;;;;;;5120659;28;20024;-86
2023/12/03 13:43:33;;;;;;;7.85;3.70;;;;;;;;;;5130296;27;20016;-85
2023/12/03 13:45:58;;;;;;;4.20;2.97;;;;;;;;;;5122799;27;20049;-86
2023/12/03 13:48:24;;;;;;;2.63;2.40;;;;;;;;;;5122807;27;20027;-86
2023/12/03 13:50:49;;;;;;;5.32;3.20;;;;;;;;;;5120402;27;20019;-86
2023/12/03 13:53:15;;;;;;;6.95;4.55;;;;;;;;;;5119722;28;20027;-87
2023/12/03 13:55:41;;;;;;;4.82;3.40;;;;;;;;;;5101853;28;20028;-86
2023/12/03 13:58:06;;;;;;;6.00;3.30;;;;;;;;;;5123191;28;20012;-85
2023/12/03 14:00:31;;;;;;;2.15;1.95;;;;;;;;;;5115662;28;20047;-85
2023/12/03 14:02:57;;;;;;;4.07;3.08;;;;;;;;;;5132929;27;20519;-86
2023/12/03 14:05:22;;;;;;;3.63;2.47;;;;;;;;;;5121691;27;20066;-85
2023/12/03 14:07:48;;;;;;;2.15;1.95;;;;;;;;;;5121603;28;20016;-86
2023/12/03 14:10:13;;;;;;;3.10;2.17;;;;;;;;;;5108922;28;20069;-86
2023/12/03 14:12:39;;;;;;;4.30;2.88;;;;;;;;;;5129567;27;20458;-86
2023/12/03 14:15:05;;;;;;;4.22;2.50;;;;;;;;;;5130042;27;20016;-84
2023/12/03 14:17:31;;;;;;;2.75;2.50;;;;;;;;;;5097008;28;20019;-86
2023/12/03 14:19:56;;;;;;;1.85;1.73;;;;;;;;;;5136821;27;20035;-85
2023/12/03 14:22:22;;;;;;;5.70;1.80;;;;;;;;;;5121952;27;20031;-85
2023/12/03 14:24:47;;;;;;;2.08;1.88;;;;;;;;;;5117855;28;20032;-86
2023/12/03 14:27:12;;;;;;;5.88;2.17;;;;;;;;;;5118693;28;20115;-84
2023/12/03 14:29:38;;;;;;;5.32;2.58;;;;;;;;;;5134937;27;20023;-84
2023/12/03 14:32:03;;;;;;;3.08;2.25;;;;;;;;;;5124398;27;20094;-86
2023/12/03 14:34:28;;;;;;;5.03;2.70;;;;;;;;;;5128841;27;20030;-86
2023/12/03 14:36:54;;;;;;;3.58;2.55;;;;;;;;;;5102250;28;20060;-86
2023/12/03 14:39:19;;;;;;;2.00;1.77;;;;;;;;;;5119401;28;20205;-85